sensor_id;sensor_type;location;lat;lon;timestamp;temperature;humidity
56300;DHT22;42209;6.376;-10.782;2023-05-10T00:00:44;22.50;39.70
56300;DHT22;42209;6.376;-10.782;2023-05-10T00:03:12;22.50;39.50
56300;DHT22;42209;6.376;-10.782;2023-05-10T00:05:41;22.40;39.70
56300;DHT22;42209;6.376;-10.782;2023-05-10T00:08:10;22.40;39.90
56300;DHT22;42209;6.376;-10.782;2023-05-10T00:10:38;22.40;40.10
56300;DHT22;42209;6.376;-10.782;2023-05-10T00:13:06;22.40;40.00
56300;DHT22;42209;6.376;-10.782;2023-05-10T00:15:35;22.40;39.80
56300;DHT22;42209;6.376;-10.782;2023-05-10T00:18:03;22.40;39.90
56300;DHT22;42209;6.376;-10.782;2023-05-10T00:20:32;22.40;39.90
56300;DHT22;42209;6.376;-10.782;2023-05-10T00:23:06;22.40;39.60
56300;DHT22;42209;6.376;-10.782;2023-05-10T00:25:34;22.40;39.80
56300;DHT22;42209;6.376;-10.782;2023-05-10T00:28:03;22.30;39.40
56300;DHT22;42209;6.376;-10.782;2023-05-10T00:30:31;22.40;39.60
56300;DHT22;42209;6.376;-10.782;2023-05-10T00:33:01;22.40;39.50
56300;DHT22;42209;6.376;-10.782;2023-05-10T00:35:29;22.30;39.50
56300;DHT22;42209;6.376;-10.782;2023-05-10T00:38:12;22.30;39.80
56300;DHT22;42209;6.376;-10.782;2023-05-10T00:40:41;22.30;39.80
56300;DHT22;42209;6.376;-10.782;2023-05-10T00:43:18;22.40;39.70
56300;DHT22;42209;6.376;-10.782;2023-05-10T00:45:47;22.40;39.60
56300;DHT22;42209;6.376;-10.782;2023-05-10T00:48:15;22.30;39.50
56300;DHT22;42209;6.376;-10.782;2023-05-10T00:50:44;22.30;39.70
56300;DHT22;42209;6.376;-10.782;2023-05-10T00:53:12;22.30;39.70
56300;DHT22;42209;6.376;-10.782;2023-05-10T00:55:41;22.30;39.50
56300;DHT22;42209;6.376;-10.782;2023-05-10T00:58:10;22.30;39.40
56300;DHT22;42209;6.376;-10.782;2023-05-10T01:00:42;22.30;39.50
56300;DHT22;42209;6.376;-10.782;2023-05-10T01:03:11;22.30;39.70
56300;DHT22;42209;6.376;-10.782;2023-05-10T01:05:39;22.40;39.60
56300;DHT22;42209;6.376;-10.782;2023-05-10T01:08:07;22.30;39.50
56300;DHT22;42209;6.376;-10.782;2023-05-10T01:10:36;22.30;39.60
56300;DHT22;42209;6.376;-10.782;2023-05-10T01:13:04;22.30;39.60
56300;DHT22;42209;6.376;-10.782;2023-05-10T01:15:33;22.30;39.80
56300;DHT22;42209;6.376;-10.782;2023-05-10T01:18:01;22.30;40.10
56300;DHT22;42209;6.376;-10.782;2023-05-10T01:20:38;22.30;40.40
56300;DHT22;42209;6.376;-10.782;2023-05-10T01:31:35;22.80;55.30
56300;DHT22;42209;6.376;-10.782;2023-05-10T01:34:17;23.10;58.50
56300;DHT22;42209;6.376;-10.782;2023-05-10T01:37:11;23.10;54.70
56300;DHT22;42209;6.376;-10.782;2023-05-10T01:39:45;22.90;51.40
56300;DHT22;42209;6.376;-10.782;2023-05-10T01:42:20;22.80;50.90
56300;DHT22;42209;6.376;-10.782;2023-05-10T01:47:48;22.70;48.50
56300;DHT22;42209;6.376;-10.782;2023-05-10T01:50:22;22.50;47.60
56300;DHT22;42209;6.376;-10.782;2023-05-10T01:52:55;22.50;46.70
56300;DHT22;42209;6.376;-10.782;2023-05-10T01:55:27;22.50;45.90
56300;DHT22;42209;6.376;-10.782;2023-05-10T01:58:06;22.50;45.30
56300;DHT22;42209;6.376;-10.782;2023-05-10T02:00:36;22.50;45.40
56300;DHT22;42209;6.376;-10.782;2023-05-10T02:03:07;22.40;44.50
56300;DHT22;42209;6.376;-10.782;2023-05-10T02:05:38;22.40;43.70
56300;DHT22;42209;6.376;-10.782;2023-05-10T02:08:08;22.40;43.10
56300;DHT22;42209;6.376;-10.782;2023-05-10T02:10:38;22.30;42.60
56300;DHT22;42209;6.376;-10.782;2023-05-10T02:13:08;22.40;42.30
56300;DHT22;42209;6.376;-10.782;2023-05-10T02:15:37;22.30;42.10
56300;DHT22;42209;6.376;-10.782;2023-05-10T02:18:07;22.40;42.40
56300;DHT22;42209;6.376;-10.782;2023-05-10T02:20:37;22.30;42.30
56300;DHT22;42209;6.376;-10.782;2023-05-10T02:23:07;22.40;41.70
56300;DHT22;42209;6.376;-10.782;2023-05-10T02:25:37;22.40;41.50
56300;DHT22;42209;6.376;-10.782;2023-05-10T02:28:07;22.40;41.10
56300;DHT22;42209;6.376;-10.782;2023-05-10T02:30:37;22.40;40.40
56300;DHT22;42209;6.376;-10.782;2023-05-10T02:33:06;22.40;40.10
56300;DHT22;42209;6.376;-10.782;2023-05-10T02:35:36;22.40;39.50
56300;DHT22;42209;6.376;-10.782;2023-05-10T02:38:07;22.40;39.20
56300;DHT22;42209;6.376;-10.782;2023-05-10T02:40:36;22.50;38.60
56300;DHT22;42209;6.376;-10.782;2023-05-10T02:43:05;22.50;39.40
56300;DHT22;42209;6.376;-10.782;2023-05-10T02:45:35;22.60;44.60
56300;DHT22;42209;6.376;-10.782;2023-05-10T02:48:04;22.70;48.50
56300;DHT22;42209;6.376;-10.782;2023-05-10T02:50:34;22.80;51.20
56300;DHT22;42209;6.376;-10.782;2023-05-10T02:53:17;22.90;53.30
56300;DHT22;42209;6.376;-10.782;2023-05-10T02:55:50;23.10;54.20
56300;DHT22;42209;6.376;-10.782;2023-05-10T02:58:19;23.10;50.70
56300;DHT22;42209;6.376;-10.782;2023-05-10T03:00:48;22.90;47.50
56300;DHT22;42209;6.376;-10.782;2023-05-10T03:03:16;22.70;47.40
56300;DHT22;42209;6.376;-10.782;2023-05-10T03:05:44;22.80;53.60
56300;DHT22;42209;6.376;-10.782;2023-05-10T03:08:14;22.90;56.00
56300;DHT22;42209;6.376;-10.782;2023-05-10T03:11:32;23.10;55.90
56300;DHT22;42209;6.376;-10.782;2023-05-10T03:16:37;23.10;49.90
56300;DHT22;42209;6.376;-10.782;2023-05-10T03:19:17;22.90;47.70
56300;DHT22;42209;6.376;-10.782;2023-05-10T03:21:51;22.70;46.50
56300;DHT22;42209;6.376;-10.782;2023-05-10T03:24:22;22.50;45.80
56300;DHT22;42209;6.376;-10.782;2023-05-10T03:26:55;22.60;53.00
56300;DHT22;42209;6.376;-10.782;2023-05-10T03:29:26;22.80;55.60
56300;DHT22;42209;6.376;-10.782;2023-05-10T03:31:57;22.90;57.70
56300;DHT22;42209;6.376;-10.782;2023-05-10T03:34:25;23.10;58.60
56300;DHT22;42209;6.376;-10.782;2023-05-10T03:36:55;23.30;58.60
56300;DHT22;42209;6.376;-10.782;2023-05-10T03:39:25;23.30;54.90
56300;DHT22;42209;6.376;-10.782;2023-05-10T03:41:57;23.10;51.10
56300;DHT22;42209;6.376;-10.782;2023-05-10T03:44:25;22.90;49.30
56300;DHT22;42209;6.376;-10.782;2023-05-10T03:46:54;22.70;48.10
56300;DHT22;42209;6.376;-10.782;2023-05-10T03:49:22;22.60;46.90
56300;DHT22;42209;6.376;-10.782;2023-05-10T03:51:50;22.50;46.60
56300;DHT22;42209;6.376;-10.782;2023-05-10T03:54:19;22.50;45.60
56300;DHT22;42209;6.376;-10.782;2023-05-10T03:56:47;22.40;44.50
56300;DHT22;42209;6.376;-10.782;2023-05-10T03:59:17;22.40;43.90
56300;DHT22;42209;6.376;-10.782;2023-05-10T04:01:45;22.40;43.20
56300;DHT22;42209;6.376;-10.782;2023-05-10T04:04:13;22.30;42.40
56300;DHT22;42209;6.376;-10.782;2023-05-10T04:06:42;22.30;42.10
56300;DHT22;42209;6.376;-10.782;2023-05-10T04:09:10;22.20;41.50
56300;DHT22;42209;6.376;-10.782;2023-05-10T04:11:39;22.30;45.60
56300;DHT22;42209;6.376;-10.782;2023-05-10T04:14:07;22.50;50.40
56300;DHT22;42209;6.376;-10.782;2023-05-10T04:16:35;22.60;52.70
56300;DHT22;42209;6.376;-10.782;2023-05-10T04:19:04;22.80;55.00
56300;DHT22;42209;6.376;-10.782;2023-05-10T04:21:32;22.90;56.80
56300;DHT22;42209;6.376;-10.782;2023-05-10T04:24:00;23.10;58.00
56300;DHT22;42209;6.376;-10.782;2023-05-10T04:26:28;23.10;58.70
56300;DHT22;42209;6.376;-10.782;2023-05-10T04:28:56;23.30;60.10
56300;DHT22;42209;6.376;-10.782;2023-05-10T04:31:25;23.30;57.20
56300;DHT22;42209;6.376;-10.782;2023-05-10T04:33:53;23.10;52.70
56300;DHT22;42209;6.376;-10.782;2023-05-10T04:36:21;22.90;50.30
56300;DHT22;42209;6.376;-10.782;2023-05-10T04:38:50;22.70;48.90
56300;DHT22;42209;6.376;-10.782;2023-05-10T04:41:18;22.60;47.90
56300;DHT22;42209;6.376;-10.782;2023-05-10T04:43:46;22.50;47.40
56300;DHT22;42209;6.376;-10.782;2023-05-10T04:46:14;22.40;46.20
56300;DHT22;42209;6.376;-10.782;2023-05-10T04:48:43;22.40;45.10
56300;DHT22;42209;6.376;-10.782;2023-05-10T04:51:11;22.40;44.50
56300;DHT22;42209;6.376;-10.782;2023-05-10T04:53:39;22.40;49.10
56300;DHT22;42209;6.376;-10.782;2023-05-10T04:56:13;22.50;54.30
56300;DHT22;42209;6.376;-10.782;2023-05-10T04:58:41;22.70;56.20
56300;DHT22;42209;6.376;-10.782;2023-05-10T05:01:09;22.90;57.60
56300;DHT22;42209;6.376;-10.782;2023-05-10T05:03:37;23.00;59.40
56300;DHT22;42209;6.376;-10.782;2023-05-10T05:06:06;23.10;60.70
56300;DHT22;42209;6.376;-10.782;2023-05-10T05:08:34;23.20;61.80
56300;DHT22;42209;6.376;-10.782;2023-05-10T05:11:02;23.20;58.40
56300;DHT22;42209;6.376;-10.782;2023-05-10T05:13:31;23.10;54.00
56300;DHT22;42209;6.376;-10.782;2023-05-10T05:16:02;22.80;51.70
56300;DHT22;42209;6.376;-10.782;2023-05-10T05:18:31;22.70;50.30
56300;DHT22;42209;6.376;-10.782;2023-05-10T05:20:59;22.60;48.90
56300;DHT22;42209;6.376;-10.782;2023-05-10T05:23:27;22.50;48.10
56300;DHT22;42209;6.376;-10.782;2023-05-10T05:25:56;22.50;51.00
56300;DHT22;42209;6.376;-10.782;2023-05-10T05:28:24;22.60;55.50
56300;DHT22;42209;6.376;-10.782;2023-05-10T05:30:52;22.80;58.10
56300;DHT22;42209;6.376;-10.782;2023-05-10T05:33:21;22.90;59.70
56300;DHT22;42209;6.376;-10.782;2023-05-10T05:35:49;23.10;61.30
56300;DHT22;42209;6.376;-10.782;2023-05-10T05:38:17;23.10;62.00
56300;DHT22;42209;6.376;-10.782;2023-05-10T05:40:46;23.30;63.50
56300;DHT22;42209;6.376;-10.782;2023-05-10T05:43:14;23.30;62.00
56300;DHT22;42209;6.376;-10.782;2023-05-10T05:45:42;23.20;56.30
56300;DHT22;42209;6.376;-10.782;2023-05-10T05:48:11;22.90;53.80
56300;DHT22;42209;6.376;-10.782;2023-05-10T05:50:39;22.80;52.10
56300;DHT22;42209;6.376;-10.782;2023-05-10T05:53:07;22.70;50.60
56300;DHT22;42209;6.376;-10.782;2023-05-10T05:55:36;22.60;49.40
56300;DHT22;42209;6.376;-10.782;2023-05-10T05:58:04;22.50;48.20
56300;DHT22;42209;6.376;-10.782;2023-05-10T06:00:33;22.40;47.30
56300;DHT22;42209;6.376;-10.782;2023-05-10T06:03:01;22.40;46.70
56300;DHT22;42209;6.376;-10.782;2023-05-10T06:05:29;22.30;45.80
56300;DHT22;42209;6.376;-10.782;2023-05-10T06:07:59;22.30;47.30
56300;DHT22;42209;6.376;-10.782;2023-05-10T06:10:27;22.50;53.00
56300;DHT22;42209;6.376;-10.782;2023-05-10T06:12:56;22.60;55.70
56300;DHT22;42209;6.376;-10.782;2023-05-10T06:15:24;22.80;57.80
56300;DHT22;42209;6.376;-10.782;2023-05-10T06:17:53;22.90;59.90
56300;DHT22;42209;6.376;-10.782;2023-05-10T06:20:21;23.00;61.30
56300;DHT22;42209;6.376;-10.782;2023-05-10T06:22:49;23.10;62.30
56300;DHT22;42209;6.376;-10.782;2023-05-10T06:25:18;23.20;62.40
56300;DHT22;42209;6.376;-10.782;2023-05-10T06:27:46;23.30;64.20
56300;DHT22;42209;6.376;-10.782;2023-05-10T06:30:19;23.20;60.00
56300;DHT22;42209;6.376;-10.782;2023-05-10T06:32:48;23.10;57.00
56300;DHT22;42209;6.376;-10.782;2023-05-10T06:35:16;22.90;55.90
56300;DHT22;42209;6.376;-10.782;2023-05-10T06:37:45;22.80;55.50
56300;DHT22;42209;6.376;-10.782;2023-05-10T06:40:13;22.70;57.30
56300;DHT22;42209;6.376;-10.782;2023-05-10T06:42:41;22.60;59.20
56300;DHT22;42209;6.376;-10.782;2023-05-10T06:45:10;22.50;58.10
56300;DHT22;42209;6.376;-10.782;2023-05-10T06:47:38;22.50;56.50
56300;DHT22;42209;6.376;-10.782;2023-05-10T06:50:08;22.50;56.10
56300;DHT22;42209;6.376;-10.782;2023-05-10T06:52:37;22.40;55.30
56300;DHT22;42209;6.376;-10.782;2023-05-10T06:55:06;22.40;55.40
56300;DHT22;42209;6.376;-10.782;2023-05-10T06:57:34;22.40;55.00
56300;DHT22;42209;6.376;-10.782;2023-05-10T07:00:03;22.30;56.00
56300;DHT22;42209;6.376;-10.782;2023-05-10T07:02:31;22.40;57.30
56300;DHT22;42209;6.376;-10.782;2023-05-10T07:05:00;22.50;65.80
56300;DHT22;42209;6.376;-10.782;2023-05-10T07:07:41;22.70;71.10
56300;DHT22;42209;6.376;-10.782;2023-05-10T07:10:09;22.90;73.20
56300;DHT22;42209;6.376;-10.782;2023-05-10T07:12:38;23.10;76.20
56300;DHT22;42209;6.376;-10.782;2023-05-10T07:15:06;23.10;70.20
56300;DHT22;42209;6.376;-10.782;2023-05-10T07:17:35;22.90;65.60
56300;DHT22;42209;6.376;-10.782;2023-05-10T07:20:04;22.80;63.10
56300;DHT22;42209;6.376;-10.782;2023-05-10T07:22:33;22.70;60.80
56300;DHT22;42209;6.376;-10.782;2023-05-10T07:25:01;22.60;58.40
56300;DHT22;42209;6.376;-10.782;2023-05-10T07:27:29;22.50;56.90
56300;DHT22;42209;6.376;-10.782;2023-05-10T07:29:58;22.40;55.20
56300;DHT22;42209;6.376;-10.782;2023-05-10T07:32:26;22.40;54.10
56300;DHT22;42209;6.376;-10.782;2023-05-10T07:34:54;22.40;53.00
56300;DHT22;42209;6.376;-10.782;2023-05-10T07:37:23;22.30;52.40
56300;DHT22;42209;6.376;-10.782;2023-05-10T07:39:51;22.40;58.60
56300;DHT22;42209;6.376;-10.782;2023-05-10T07:42:19;22.50;62.30
56300;DHT22;42209;6.376;-10.782;2023-05-10T07:44:48;22.70;65.80
56300;DHT22;42209;6.376;-10.782;2023-05-10T07:47:16;22.90;68.80
56300;DHT22;42209;6.376;-10.782;2023-05-10T07:49:44;23.00;68.70
56300;DHT22;42209;6.376;-10.782;2023-05-10T07:52:12;23.10;69.70
56300;DHT22;42209;6.376;-10.782;2023-05-10T07:54:40;23.10;66.40
56300;DHT22;42209;6.376;-10.782;2023-05-10T07:57:09;22.80;60.70
56300;DHT22;42209;6.376;-10.782;2023-05-10T07:59:37;22.60;60.40
56300;DHT22;42209;6.376;-10.782;2023-05-10T08:02:06;22.60;64.20
56300;DHT22;42209;6.376;-10.782;2023-05-10T08:04:34;22.70;66.20
56300;DHT22;42209;6.376;-10.782;2023-05-10T08:07:03;22.80;67.50
56300;DHT22;42209;6.376;-10.782;2023-05-10T08:09:31;22.90;68.70
56300;DHT22;42209;6.376;-10.782;2023-05-10T08:11:59;23.10;69.70
56300;DHT22;42209;6.376;-10.782;2023-05-10T08:14:29;23.10;71.60
56300;DHT22;42209;6.376;-10.782;2023-05-10T08:16:57;23.20;72.70
56300;DHT22;42209;6.376;-10.782;2023-05-10T08:19:25;23.30;73.30
56300;DHT22;42209;6.376;-10.782;2023-05-10T08:21:54;23.20;67.70
56300;DHT22;42209;6.376;-10.782;2023-05-10T08:24:22;22.90;62.40
56300;DHT22;42209;6.376;-10.782;2023-05-10T08:26:51;22.70;63.30
56300;DHT22;42209;6.376;-10.782;2023-05-10T08:29:19;22.80;66.60
56300;DHT22;42209;6.376;-10.782;2023-05-10T08:31:47;22.90;69.10
56300;DHT22;42209;6.376;-10.782;2023-05-10T08:34:16;23.00;71.20
56300;DHT22;42209;6.376;-10.782;2023-05-10T08:36:44;23.20;71.60
56300;DHT22;42209;6.376;-10.782;2023-05-10T08:39:15;23.20;72.90
56300;DHT22;42209;6.376;-10.782;2023-05-10T08:42:00;23.30;73.40
56300;DHT22;42209;6.376;-10.782;2023-05-10T08:44:31;23.30;70.70
56300;DHT22;42209;6.376;-10.782;2023-05-10T08:47:04;23.00;63.30
56300;DHT22;42209;6.376;-10.782;2023-05-10T08:49:33;22.80;60.90
56300;DHT22;42209;6.376;-10.782;2023-05-10T08:52:04;22.70;66.00
56300;DHT22;42209;6.376;-10.782;2023-05-10T08:54:34;22.90;68.80
56300;DHT22;42209;6.376;-10.782;2023-05-10T08:57:02;23.00;70.00
56300;DHT22;42209;6.376;-10.782;2023-05-10T08:59:30;23.10;70.70
56300;DHT22;42209;6.376;-10.782;2023-05-10T09:01:59;23.20;70.30
56300;DHT22;42209;6.376;-10.782;2023-05-10T09:04:31;23.20;70.30
56300;DHT22;42209;6.376;-10.782;2023-05-10T09:06:59;23.20;69.10
56300;DHT22;42209;6.376;-10.782;2023-05-10T09:09:28;23.30;63.70
56300;DHT22;42209;6.376;-10.782;2023-05-10T09:11:56;22.90;58.20
56300;DHT22;42209;6.376;-10.782;2023-05-10T09:14:25;22.70;60.70
56300;DHT22;42209;6.376;-10.782;2023-05-10T09:16:54;22.70;63.40
56300;DHT22;42209;6.376;-10.782;2023-05-10T09:19:23;22.80;66.10
56300;DHT22;42209;6.376;-10.782;2023-05-10T09:21:51;23.00;67.80
56300;DHT22;42209;6.376;-10.782;2023-05-10T09:24:20;23.10;67.90
56300;DHT22;42209;6.376;-10.782;2023-05-10T09:26:56;23.30;66.70
56300;DHT22;42209;6.376;-10.782;2023-05-10T09:29:25;23.10;59.80
56300;DHT22;42209;6.376;-10.782;2023-05-10T09:31:54;22.70;56.90
56300;DHT22;42209;6.376;-10.782;2023-05-10T09:34:32;22.60;62.50
56300;DHT22;42209;6.376;-10.782;2023-05-10T09:37:02;22.70;64.60
56300;DHT22;42209;6.376;-10.782;2023-05-10T09:39:35;22.90;66.00
56300;DHT22;42209;6.376;-10.782;2023-05-10T09:42:06;22.90;65.60
56300;DHT22;42209;6.376;-10.782;2023-05-10T09:44:35;23.10;63.20
56300;DHT22;42209;6.376;-10.782;2023-05-10T09:47:04;23.20;60.00
56300;DHT22;42209;6.376;-10.782;2023-05-10T09:49:33;22.90;55.10
56300;DHT22;42209;6.376;-10.782;2023-05-10T09:52:07;22.50;55.60
56300;DHT22;42209;6.376;-10.782;2023-05-10T09:54:35;22.50;60.30
56300;DHT22;42209;6.376;-10.782;2023-05-10T09:57:04;22.70;63.10
56300;DHT22;42209;6.376;-10.782;2023-05-10T09:59:33;22.80;63.40
56300;DHT22;42209;6.376;-10.782;2023-05-10T10:02:01;23.10;63.10
56300;DHT22;42209;6.376;-10.782;2023-05-10T10:04:39;23.20;60.00
56300;DHT22;42209;6.376;-10.782;2023-05-10T10:07:08;22.90;55.70
56300;DHT22;42209;6.376;-10.782;2023-05-10T10:09:36;22.60;57.30
56300;DHT22;42209;6.376;-10.782;2023-05-10T10:12:05;22.60;61.60
56300;DHT22;42209;6.376;-10.782;2023-05-10T10:14:34;22.70;63.50
56300;DHT22;42209;6.376;-10.782;2023-05-10T10:21:23;23.00;55.80
56300;DHT22;42209;6.376;-10.782;2023-05-10T10:23:52;23.20;58.80
56300;DHT22;42209;6.376;-10.782;2023-05-10T10:26:21;23.20;55.80
56300;DHT22;42209;6.376;-10.782;2023-05-10T10:34:30;22.50;60.50
56300;DHT22;42209;6.376;-10.782;2023-05-10T10:37:04;22.60;63.50
56300;DHT22;42209;6.376;-10.782;2023-05-10T10:39:33;22.80;63.30
56300;DHT22;42209;6.376;-10.782;2023-05-10T10:42:01;23.00;63.10
56300;DHT22;42209;6.376;-10.782;2023-05-10T10:49:43;22.50;57.00
56300;DHT22;42209;6.376;-10.782;2023-05-10T10:55:01;22.60;63.50
56300;DHT22;42209;6.376;-10.782;2023-05-10T10:57:49;22.80;64.40
56300;DHT22;42209;6.376;-10.782;2023-05-10T11:00:19;23.00;63.80
56300;DHT22;42209;6.376;-10.782;2023-05-10T11:05:48;22.80;56.60
56300;DHT22;42209;6.376;-10.782;2023-05-10T11:09:01;22.50;58.20
56300;DHT22;42209;6.376;-10.782;2023-05-10T11:11:14;22.50;62.10
56300;DHT22;42209;6.376;-10.782;2023-05-10T11:13:43;22.70;65.10
56300;DHT22;42209;6.376;-10.782;2023-05-10T11:19:01;23.10;64.30
56300;DHT22;42209;6.376;-10.782;2023-05-10T11:21:32;23.10;59.20
56300;DHT22;42209;6.376;-10.782;2023-05-10T11:24:01;22.70;55.40
56300;DHT22;42209;6.376;-10.782;2023-05-10T11:26:34;22.40;58.60
56300;DHT22;42209;6.376;-10.782;2023-05-10T11:29:03;22.50;62.40
56300;DHT22;42209;6.376;-10.782;2023-05-10T11:31:31;22.60;64.40
56300;DHT22;42209;6.376;-10.782;2023-05-10T11:34:00;22.70;65.60
56300;DHT22;42209;6.376;-10.782;2023-05-10T11:36:33;22.90;64.60
56300;DHT22;42209;6.376;-10.782;2023-05-10T11:39:02;23.10;61.80
56300;DHT22;42209;6.376;-10.782;2023-05-10T11:41:30;22.80;56.90
56300;DHT22;42209;6.376;-10.782;2023-05-10T11:43:59;22.50;58.10
56300;DHT22;42209;6.376;-10.782;2023-05-10T11:46:28;22.50;62.10
56300;DHT22;42209;6.376;-10.782;2023-05-10T11:48:59;22.60;64.40
56300;DHT22;42209;6.376;-10.782;2023-05-10T11:51:28;22.70;65.70
56300;DHT22;42209;6.376;-10.782;2023-05-10T11:53:57;22.90;65.00
56300;DHT22;42209;6.376;-10.782;2023-05-10T11:56:25;23.10;63.30
56300;DHT22;42209;6.376;-10.782;2023-05-10T11:58:56;22.90;58.30
56300;DHT22;42209;6.376;-10.782;2023-05-10T12:01:26;22.60;55.80
56300;DHT22;42209;6.376;-10.782;2023-05-10T12:03:57;22.50;61.50
56300;DHT22;42209;6.376;-10.782;2023-05-10T12:06:31;22.50;64.60
56300;DHT22;42209;6.376;-10.782;2023-05-10T12:09:02;22.70;66.90
56300;DHT22;42209;6.376;-10.782;2023-05-10T12:11:40;22.80;66.10
56300;DHT22;42209;6.376;-10.782;2023-05-10T12:14:10;23.00;65.00
56300;DHT22;42209;6.376;-10.782;2023-05-10T12:16:38;23.00;59.80
56300;DHT22;42209;6.376;-10.782;2023-05-10T12:19:07;22.70;56.00
56300;DHT22;42209;6.376;-10.782;2023-05-10T12:21:37;22.40;59.60
56300;DHT22;42209;6.376;-10.782;2023-05-10T12:24:05;22.50;63.10
56300;DHT22;42209;6.376;-10.782;2023-05-10T12:26:35;22.60;65.40
56300;DHT22;42209;6.376;-10.782;2023-05-10T12:29:19;22.80;65.90
56300;DHT22;42209;6.376;-10.782;2023-05-10T12:31:55;23.10;65.20
56300;DHT22;42209;6.376;-10.782;2023-05-10T12:34:34;23.10;60.20
56300;DHT22;42209;6.376;-10.782;2023-05-10T12:37:04;22.70;56.40
56300;DHT22;42209;6.376;-10.782;2023-05-10T12:39:44;22.50;60.50
56300;DHT22;42209;6.376;-10.782;2023-05-10T12:42:12;22.50;63.70
56300;DHT22;42209;6.376;-10.782;2023-05-10T12:44:42;22.70;66.40
56300;DHT22;42209;6.376;-10.782;2023-05-10T12:47:10;22.80;67.00
56300;DHT22;42209;6.376;-10.782;2023-05-10T12:49:38;23.00;65.40
56300;DHT22;42209;6.376;-10.782;2023-05-10T12:52:07;23.10;61.80
56300;DHT22;42209;6.376;-10.782;2023-05-10T12:54:35;22.90;58.40
56300;DHT22;42209;6.376;-10.782;2023-05-10T12:57:03;22.60;56.20
56300;DHT22;42209;6.376;-10.782;2023-05-10T12:59:32;22.50;62.00
56300;DHT22;42209;6.376;-10.782;2023-05-10T13:02:05;22.60;64.50
56300;DHT22;42209;6.376;-10.782;2023-05-10T13:04:34;22.80;66.90
56300;DHT22;42209;6.376;-10.782;2023-05-10T13:07:02;22.90;68.40
56300;DHT22;42209;6.376;-10.782;2023-05-10T13:09:33;23.10;68.40
56300;DHT22;42209;6.376;-10.782;2023-05-10T13:12:01;23.20;65.40
56300;DHT22;42209;6.376;-10.782;2023-05-10T13:14:29;22.90;60.60
56300;DHT22;42209;6.376;-10.782;2023-05-10T13:16:58;22.70;57.70
56300;DHT22;42209;6.376;-10.782;2023-05-10T13:19:26;22.50;59.30
56300;DHT22;42209;6.376;-10.782;2023-05-10T13:21:55;22.60;64.10
56300;DHT22;42209;6.376;-10.782;2023-05-10T13:24:23;22.70;66.50
56300;DHT22;42209;6.376;-10.782;2023-05-10T13:26:51;22.80;67.70
56300;DHT22;42209;6.376;-10.782;2023-05-10T13:29:20;23.00;70.20
56300;DHT22;42209;6.376;-10.782;2023-05-10T13:31:49;23.10;70.50
56300;DHT22;42209;6.376;-10.782;2023-05-10T13:34:19;23.20;67.70
56300;DHT22;42209;6.376;-10.782;2023-05-10T13:36:47;23.00;61.50
56300;DHT22;42209;6.376;-10.782;2023-05-10T13:39:17;22.70;58.70
56300;DHT22;42209;6.376;-10.782;2023-05-10T13:41:45;22.50;57.30
56300;DHT22;42209;6.376;-10.782;2023-05-10T13:44:14;22.50;62.00
56300;DHT22;42209;6.376;-10.782;2023-05-10T13:46:42;22.60;65.30
56300;DHT22;42209;6.376;-10.782;2023-05-10T13:49:11;22.80;67.30
56300;DHT22;42209;6.376;-10.782;2023-05-10T13:51:39;22.90;69.10
56300;DHT22;42209;6.376;-10.782;2023-05-10T13:54:07;23.00;70.10
56300;DHT22;42209;6.376;-10.782;2023-05-10T13:56:41;23.20;71.10
56300;DHT22;42209;6.376;-10.782;2023-05-10T13:59:10;23.20;69.20
56300;DHT22;42209;6.376;-10.782;2023-05-10T14:01:41;23.00;63.70
56300;DHT22;42209;6.376;-10.782;2023-05-10T14:04:09;22.70;60.70
56300;DHT22;42209;6.376;-10.782;2023-05-10T14:06:38;22.60;63.60
56300;DHT22;42209;6.376;-10.782;2023-05-10T14:09:06;22.70;66.80
56300;DHT22;42209;6.376;-10.782;2023-05-10T14:11:34;22.80;68.70
56300;DHT22;42209;6.376;-10.782;2023-05-10T14:14:03;22.90;69.80
56300;DHT22;42209;6.376;-10.782;2023-05-10T14:16:31;23.00;70.70
56300;DHT22;42209;6.376;-10.782;2023-05-10T14:18:59;23.10;70.00
56300;DHT22;42209;6.376;-10.782;2023-05-10T14:21:31;23.10;68.30
56300;DHT22;42209;6.376;-10.782;2023-05-10T14:23:59;23.20;64.60
56300;DHT22;42209;6.376;-10.782;2023-05-10T14:26:29;22.90;58.30
56300;DHT22;42209;6.376;-10.782;2023-05-10T14:28:57;22.60;56.60
56300;DHT22;42209;6.376;-10.782;2023-05-10T14:31:28;22.50;61.80
56300;DHT22;42209;6.376;-10.782;2023-05-10T15:59:25;24.70;67.40
56300;DHT22;42209;6.376;-10.782;2023-05-10T16:01:54;24.60;67.90
56300;DHT22;42209;6.376;-10.782;2023-05-10T16:04:22;24.50;65.70
56300;DHT22;42209;6.376;-10.782;2023-05-10T16:06:50;24.10;62.50
56300;DHT22;42209;6.376;-10.782;2023-05-10T16:09:21;23.70;60.50
56300;DHT22;42209;6.376;-10.782;2023-05-10T16:11:49;23.50;59.30
56300;DHT22;42209;6.376;-10.782;2023-05-10T16:14:18;23.40;58.60
56300;DHT22;42209;6.376;-10.782;2023-05-10T16:16:46;23.40;58.30
56300;DHT22;42209;6.376;-10.782;2023-05-10T16:19:15;23.30;56.50
56300;DHT22;42209;6.376;-10.782;2023-05-10T16:21:43;23.20;54.80
56300;DHT22;42209;6.376;-10.782;2023-05-10T16:24:11;23.10;54.00
56300;DHT22;42209;6.376;-10.782;2023-05-10T16:26:40;23.00;52.50
56300;DHT22;42209;6.376;-10.782;2023-05-10T16:29:08;22.90;51.10
56300;DHT22;42209;6.376;-10.782;2023-05-10T16:31:36;22.80;53.50
56300;DHT22;42209;6.376;-10.782;2023-05-10T16:34:05;22.90;58.10
56300;DHT22;42209;6.376;-10.782;2023-05-10T16:36:33;23.10;60.90
56300;DHT22;42209;6.376;-10.782;2023-05-10T16:39:01;23.20;63.20
56300;DHT22;42209;6.376;-10.782;2023-05-10T16:41:32;23.30;65.20
56300;DHT22;42209;6.376;-10.782;2023-05-10T16:44:02;23.40;67.20
56300;DHT22;42209;6.376;-10.782;2023-05-10T16:46:34;23.40;68.10
56300;DHT22;42209;6.376;-10.782;2023-05-10T16:49:02;23.50;68.00
56300;DHT22;42209;6.376;-10.782;2023-05-10T16:51:31;23.50;68.10
56300;DHT22;42209;6.376;-10.782;2023-05-10T16:53:59;23.40;62.00
56300;DHT22;42209;6.376;-10.782;2023-05-10T16:56:27;23.10;56.70
56300;DHT22;42209;6.376;-10.782;2023-05-10T16:58:55;22.90;59.20
56300;DHT22;42209;6.376;-10.782;2023-05-10T17:01:24;23.00;62.60
56300;DHT22;42209;6.376;-10.782;2023-05-10T17:03:53;23.10;64.90
56300;DHT22;42209;6.376;-10.782;2023-05-10T17:06:22;23.20;66.90
56300;DHT22;42209;6.376;-10.782;2023-05-10T17:08:50;23.30;67.30
56300;DHT22;42209;6.376;-10.782;2023-05-10T17:11:18;23.40;66.90
56300;DHT22;42209;6.376;-10.782;2023-05-10T17:13:47;23.30;61.40
56300;DHT22;42209;6.376;-10.782;2023-05-10T17:16:15;23.00;56.60
56300;DHT22;42209;6.376;-10.782;2023-05-10T17:18:43;22.80;57.00
56300;DHT22;42209;6.376;-10.782;2023-05-10T17:21:12;22.80;61.40
56300;DHT22;42209;6.376;-10.782;2023-05-10T17:23:40;22.90;63.80
56300;DHT22;42209;6.376;-10.782;2023-05-10T17:26:18;23.10;65.80
56300;DHT22;42209;6.376;-10.782;2023-05-10T17:28:47;23.30;66.00
56300;DHT22;42209;6.376;-10.782;2023-05-10T17:31:15;23.40;66.00
56300;DHT22;42209;6.376;-10.782;2023-05-10T17:33:43;23.30;60.50